AFR1032 LFPG-LGAV
Flight info
| Callsign | AFR1032 |
|---|---|
| Flight time | N/A |
| Altitude | 35000 |
| Route | BUBLI DCT LUVAL DCT BEGAR DCT TRA DCT GAMSA DCT GEDSO DCT VEKEN DCT DARZA DCT ELTIB DCT GACMO DCT ENFAR DCT TALAS UN130 TSL DCT SIGFO UM749 ROPOX |
| Aircraft | A21N/M-SDE3FGHIRWY/LB1 |
Departure
| Time | 2026-05-06 17:08 |
|---|---|
| Airport | Charles de Gaulle International Airport (LFPG) |
Arrival
| Time | N/A |
|---|---|
| Airport | Athens Eleftherios Venizelos International Airport (LGAV) |
| Time | Latitude | Longitude | Altitude | Speed | Heading |
|---|---|---|---|---|---|
| 2026-05-06 16:39 | 49.00733 | 2.57792 | 355 ft | 0 kts | 165° |
| 2026-05-06 16:52 | 49.00734 | 2.57791 | 355 ft | 1 kts | 164° |
| 2026-05-06 16:53 | 49.00748 | 2.57787 | 355 ft | 2 kts | 166° |
| 2026-05-06 16:53 | 49.00763 | 2.57780 | 355 ft | 2 kts | 164° |
| 2026-05-06 16:53 | 49.00773 | 2.57776 | 355 ft | 1 kts | 165° |
| 2026-05-06 16:53 | 49.00786 | 2.57767 | 355 ft | 2 kts | 136° |
| 2026-05-06 16:54 | 49.00795 | 2.57748 | 355 ft | 2 kts | 110° |
| 2026-05-06 16:54 | 49.00797 | 2.57730 | 355 ft | 0 kts | 88° |
| 2026-05-06 16:54 | 49.00796 | 2.57720 | 355 ft | 1 kts | 84° |
| 2026-05-06 16:54 | 49.00796 | 2.57718 | 355 ft | 0 kts | 84° |
| 2026-05-06 16:55 | 49.00796 | 2.57719 | 355 ft | 0 kts | 84° |
| 2026-05-06 16:57 | 49.00796 | 2.57729 | 355 ft | 1 kts | 84° |
| 2026-05-06 16:58 | 49.00798 | 2.57759 | 355 ft | 4 kts | 85° |
| 2026-05-06 16:58 | 49.00801 | 2.57816 | 355 ft | 6 kts | 87° |
| 2026-05-06 16:58 | 49.00805 | 2.57902 | 353 ft | 9 kts | 86° |
| 2026-05-06 16:58 | 49.00811 | 2.58019 | 351 ft | 12 kts | 86° |
| 2026-05-06 16:59 | 49.00818 | 2.58156 | 350 ft | 13 kts | 85° |
| 2026-05-06 16:59 | 49.00871 | 2.58257 | 349 ft | 13 kts | 358° |
| 2026-05-06 16:59 | 49.00964 | 2.58233 | 349 ft | 13 kts | 353° |
| 2026-05-06 16:59 | 49.01053 | 2.58221 | 350 ft | 12 kts | 355° |
| 2026-05-06 17:00 | 49.01137 | 2.58210 | 351 ft | 11 kts | 355° |
| 2026-05-06 17:00 | 49.01218 | 2.58200 | 352 ft | 11 kts | 355° |
| 2026-05-06 17:00 | 49.01292 | 2.58190 | 354 ft | 10 kts | 355° |
| 2026-05-06 17:00 | 49.01362 | 2.58181 | 355 ft | 10 kts | 355° |
| 2026-05-06 17:01 | 49.01432 | 2.58172 | 356 ft | 10 kts | 355° |
| 2026-05-06 17:01 | 49.01505 | 2.58164 | 358 ft | 10 kts | 356° |
| 2026-05-06 17:01 | 49.01580 | 2.58154 | 359 ft | 11 kts | 355° |
| 2026-05-06 17:01 | 49.01657 | 2.58144 | 362 ft | 10 kts | 355° |
| 2026-05-06 17:02 | 49.01733 | 2.58136 | 364 ft | 10 kts | 356° |
| 2026-05-06 17:02 | 49.01807 | 2.58127 | 366 ft | 10 kts | 355° |
| 2026-05-06 17:02 | 49.01882 | 2.58114 | 368 ft | 10 kts | 347° |
| 2026-05-06 17:02 | 49.01953 | 2.58068 | 370 ft | 11 kts | 329° |
| 2026-05-06 17:03 | 49.02018 | 2.57989 | 372 ft | 12 kts | 313° |
| 2026-05-06 17:03 | 49.02066 | 2.57877 | 373 ft | 13 kts | 294° |
| 2026-05-06 17:03 | 49.02087 | 2.57737 | 374 ft | 14 kts | 274° |
| 2026-05-06 17:03 | 49.02082 | 2.57581 | 375 ft | 15 kts | 266° |
| 2026-05-06 17:04 | 49.02074 | 2.57420 | 376 ft | 14 kts | 266° |
| 2026-05-06 17:04 | 49.02065 | 2.57267 | 377 ft | 14 kts | 265° |
| 2026-05-06 17:04 | 49.02057 | 2.57118 | 378 ft | 13 kts | 266° |
| 2026-05-06 17:04 | 49.02050 | 2.56977 | 379 ft | 13 kts | 265° |
| 2026-05-06 17:05 | 49.02043 | 2.56841 | 380 ft | 12 kts | 265° |
| 2026-05-06 17:05 | 49.02036 | 2.56713 | 381 ft | 11 kts | 265° |
| 2026-05-06 17:05 | 49.02029 | 2.56589 | 381 ft | 11 kts | 265° |
| 2026-05-06 17:05 | 49.02023 | 2.56465 | 382 ft | 11 kts | 266° |
| 2026-05-06 17:06 | 49.02039 | 2.56350 | 382 ft | 11 kts | 312° |
| 2026-05-06 17:06 | 49.02110 | 2.56313 | 384 ft | 10 kts | 353° |
| 2026-05-06 17:06 | 49.02175 | 2.56302 | 385 ft | 8 kts | 355° |
| 2026-05-06 17:06 | 49.02232 | 2.56287 | 387 ft | 8 kts | 338° |
| 2026-05-06 17:07 | 49.02281 | 2.56217 | 387 ft | 11 kts | 299° |
| 2026-05-06 17:07 | 49.02315 | 2.56088 | 388 ft | 14 kts | 279° |
| 2026-05-06 17:07 | 49.02309 | 2.55897 | 387 ft | 30 kts | 268° |
| 2026-05-06 17:07 | 49.02270 | 2.55190 | 383 ft | 101 kts | 266° |
| 2026-05-06 17:08 | 49.02195 | 2.53793 | 382 ft | 159 kts | 266° |
| 2026-05-06 17:08 | 49.02084 | 2.51964 | 645 ft | 182 kts | 268° |
| 2026-05-06 17:08 | 49.01979 | 2.50024 | 1226 ft | 188 kts | 268° |
| 2026-05-06 17:08 | 49.01867 | 2.48046 | 1962 ft | 188 kts | 269° |
| 2026-05-06 17:09 | 49.01751 | 2.46032 | 2521 ft | 198 kts | 269° |
| 2026-05-06 17:09 | 49.01635 | 2.43880 | 2961 ft | 213 kts | 272° |
| 2026-05-06 17:09 | 49.01904 | 2.41639 | 3416 ft | 221 kts | 300° |
| 2026-05-06 17:09 | 49.02913 | 2.39822 | 3873 ft | 232 kts | 328° |
| 2026-05-06 17:10 | 49.04343 | 2.38571 | 4435 ft | 244 kts | 334° |
| 2026-05-06 17:10 | 49.05875 | 2.37343 | 5034 ft | 256 kts | 333° |
| 2026-05-06 17:10 | 49.07426 | 2.36020 | 5802 ft | 260 kts | 330° |
| 2026-05-06 17:10 | 49.08973 | 2.34571 | 6597 ft | 264 kts | 329° |
| 2026-05-06 17:11 | 49.10582 | 2.33282 | 7355 ft | 265 kts | 343° |
| 2026-05-06 17:11 | 49.12428 | 2.33052 | 8069 ft | 269 kts | 9° |
| 2026-05-06 17:11 | 49.14154 | 2.34064 | 8794 ft | 273 kts | 33° |
| 2026-05-06 17:11 | 49.15473 | 2.36138 | 9447 ft | 280 kts | 57° |
| 2026-05-06 17:12 | 49.16128 | 2.38937 | 10078 ft | 287 kts | 81° |
| 2026-05-06 17:12 | 49.16004 | 2.42055 | 10449 ft | 305 kts | 104° |
| 2026-05-06 17:12 | 49.15199 | 2.45160 | 10772 ft | 322 kts | 113° |
| 2026-05-06 17:12 | 49.14222 | 2.48319 | 11078 ft | 338 kts | 113° |
| 2026-05-06 17:13 | 49.13260 | 2.51606 | 11570 ft | 347 kts | 112° |
| 2026-05-06 17:13 | 49.12371 | 2.55023 | 12240 ft | 349 kts | 108° |
| 2026-05-06 17:13 | 49.11602 | 2.58574 | 12915 ft | 352 kts | 106° |
| 2026-05-06 17:13 | 49.10865 | 2.62138 | 13544 ft | 355 kts | 106° |
| 2026-05-06 17:14 | 49.10124 | 2.65707 | 14182 ft | 358 kts | 107° |
| 2026-05-06 17:14 | 49.09359 | 2.69357 | 14813 ft | 362 kts | 107° |
| 2026-05-06 17:14 | 49.08586 | 2.73009 | 15405 ft | 365 kts | 107° |
| 2026-05-06 17:14 | 49.07806 | 2.76669 | 16013 ft | 368 kts | 108° |
| 2026-05-06 17:15 | 49.07006 | 2.80409 | 16574 ft | 371 kts | 108° |
| 2026-05-06 17:15 | 49.06175 | 2.84128 | 17154 ft | 374 kts | 111° |
| 2026-05-06 17:15 | 49.05086 | 2.87740 | 17710 ft | 377 kts | 116° |
| 2026-05-06 17:15 | 49.03912 | 2.91280 | 18272 ft | 380 kts | 117° |
| 2026-05-06 17:16 | 49.02708 | 2.94898 | 18809 ft | 383 kts | 116° |
| 2026-05-06 17:16 | 49.01511 | 2.98538 | 19337 ft | 386 kts | 116° |
| 2026-05-06 17:16 | 49.00332 | 3.02165 | 19853 ft | 389 kts | 116° |
| 2026-05-06 17:16 | 48.99133 | 3.05874 | 20366 ft | 392 kts | 116° |
| 2026-05-06 17:17 | 48.97937 | 3.09592 | 20873 ft | 394 kts | 116° |
| 2026-05-06 17:17 | 48.96732 | 3.13340 | 21376 ft | 396 kts | 116° |
| 2026-05-06 17:17 | 48.95517 | 3.17121 | 21877 ft | 398 kts | 116° |
| 2026-05-06 17:17 | 48.94299 | 3.20907 | 22370 ft | 400 kts | 116° |
| 2026-05-06 17:18 | 48.93074 | 3.24714 | 22843 ft | 402 kts | 116° |
| 2026-05-06 17:18 | 48.91847 | 3.28520 | 23283 ft | 405 kts | 116° |
| 2026-05-06 17:18 | 48.90606 | 3.32365 | 23708 ft | 408 kts | 116° |
| 2026-05-06 17:18 | 48.89348 | 3.36259 | 24128 ft | 410 kts | 116° |
| 2026-05-06 17:19 | 48.88073 | 3.40197 | 24551 ft | 412 kts | 116° |
| 2026-05-06 17:19 | 48.86811 | 3.44086 | 25011 ft | 413 kts | 116° |
| 2026-05-06 17:19 | 48.85547 | 3.47975 | 25447 ft | 414 kts | 116° |
| 2026-05-06 17:19 | 48.84272 | 3.51902 | 25817 ft | 417 kts | 116° |
| 2026-05-06 17:20 | 48.82988 | 3.55848 | 26179 ft | 419 kts | 116° |
| 2026-05-06 17:20 | 48.81687 | 3.59833 | 26549 ft | 421 kts | 116° |
| 2026-05-06 17:20 | 48.80391 | 3.63798 | 26879 ft | 423 kts | 116° |
| 2026-05-06 17:20 | 48.79073 | 3.67827 | 27199 ft | 425 kts | 117° |
| 2026-05-06 17:21 | 48.77747 | 3.71877 | 27519 ft | 427 kts | 117° |
| 2026-05-06 17:21 | 48.76437 | 3.75870 | 27848 ft | 428 kts | 117° |
| 2026-05-06 17:21 | 48.75118 | 3.79887 | 28178 ft | 430 kts | 117° |
| 2026-05-06 17:21 | 48.73776 | 3.83968 | 28489 ft | 431 kts | 117° |
| 2026-05-06 17:22 | 48.72447 | 3.88002 | 28796 ft | 432 kts | 117° |
| 2026-05-06 17:22 | 48.71112 | 3.92045 | 29101 ft | 433 kts | 117° |
| 2026-05-06 17:22 | 48.69764 | 3.96122 | 29381 ft | 435 kts | 117° |
| 2026-05-06 17:22 | 48.68400 | 4.00241 | 29659 ft | 436 kts | 117° |
| 2026-05-06 17:23 | 48.67040 | 4.04338 | 29967 ft | 436 kts | 117° |
| 2026-05-06 17:23 | 48.65686 | 4.08411 | 30369 ft | 434 kts | 117° |
| 2026-05-06 17:23 | 48.64341 | 4.12453 | 30787 ft | 432 kts | 118° |
| 2026-05-06 17:23 | 48.62993 | 4.16496 | 31169 ft | 430 kts | 118° |
| 2026-05-06 17:24 | 48.61641 | 4.20545 | 31473 ft | 428 kts | 118° |
| 2026-05-06 17:24 | 48.60309 | 4.24522 | 31723 ft | 428 kts | 117° |
| 2026-05-06 17:24 | 48.58974 | 4.28508 | 31941 ft | 428 kts | 117° |
| 2026-05-06 17:24 | 48.57629 | 4.32513 | 32142 ft | 428 kts | 117° |
| 2026-05-06 17:25 | 48.56281 | 4.36526 | 32335 ft | 428 kts | 117° |
| 2026-05-06 17:25 | 48.54930 | 4.40539 | 32522 ft | 429 kts | 117° |
| 2026-05-06 17:25 | 48.53597 | 4.44497 | 32691 ft | 428 kts | 117° |
| 2026-05-06 17:25 | 48.52237 | 4.48527 | 32850 ft | 429 kts | 117° |
| 2026-05-06 17:26 | 48.50894 | 4.52497 | 32997 ft | 429 kts | 117° |
| 2026-05-06 17:26 | 48.49537 | 4.56507 | 33128 ft | 429 kts | 117° |
| 2026-05-06 17:26 | 48.48192 | 4.60475 | 33257 ft | 430 kts | 117° |
| 2026-05-06 17:26 | 48.46819 | 4.64517 | 33384 ft | 431 kts | 117° |
| 2026-05-06 17:27 | 48.45436 | 4.68583 | 33471 ft | 432 kts | 118° |
| 2026-05-06 17:27 | 48.42691 | 4.76636 | 33682 ft | 434 kts | 118° |
| 2026-05-06 17:28 | 48.39916 | 4.84755 | 33849 ft | 437 kts | 118° |
| 2026-05-06 17:28 | 48.37142 | 4.92842 | 34030 ft | 439 kts | 118° |
| 2026-05-06 17:29 | 48.34331 | 5.01010 | 34240 ft | 439 kts | 118° |
| 2026-05-06 17:29 | 48.32933 | 5.05059 | 34370 ft | 438 kts | 118° |
| 2026-05-06 17:29 | 48.31585 | 5.09136 | 34530 ft | 437 kts | 116° |
| 2026-05-06 17:29 | 48.30373 | 5.13323 | 34685 ft | 437 kts | 113° |
| 2026-05-06 17:30 | 48.29321 | 5.17585 | 34812 ft | 436 kts | 110° |
| 2026-05-06 17:30 | 48.27700 | 5.26324 | 34868 ft | 443 kts | 104° |
| 2026-05-06 17:31 | 48.26349 | 5.35443 | 34846 ft | 450 kts | 104° |
| 2026-05-06 17:31 | 48.24994 | 5.44582 | 34845 ft | 452 kts | 104° |
| 2026-05-06 17:32 | 48.23622 | 5.53737 | 34873 ft | 452 kts | 104° |
| 2026-05-06 17:32 | 48.22240 | 5.62904 | 34846 ft | 451 kts | 104° |
| 2026-05-06 17:33 | 48.20849 | 5.72068 | 34847 ft | 451 kts | 105° |
| 2026-05-06 17:33 | 48.19441 | 5.81277 | 34824 ft | 452 kts | 105° |
| 2026-05-06 17:34 | 48.18035 | 5.90417 | 34833 ft | 452 kts | 105° |
| 2026-05-06 17:34 | 48.16619 | 5.99584 | 34845 ft | 452 kts | 105° |
| 2026-05-06 17:35 | 48.15203 | 6.08694 | 34856 ft | 452 kts | 105° |
| 2026-05-06 17:35 | 48.13771 | 6.17868 | 34857 ft | 452 kts | 105° |
| 2026-05-06 17:36 | 48.11617 | 6.31550 | 34862 ft | 452 kts | 106° |
| 2026-05-06 17:36 | 48.10163 | 6.40727 | 34843 ft | 452 kts | 106° |
| 2026-05-06 17:37 | 48.08714 | 6.49813 | 34841 ft | 453 kts | 106° |
| 2026-05-06 17:37 | 48.07246 | 6.58968 | 34857 ft | 452 kts | 106° |
| 2026-05-06 17:38 | 48.05780 | 6.68078 | 34848 ft | 452 kts | 107° |
| 2026-05-06 17:38 | 48.04298 | 6.77212 | 34854 ft | 452 kts | 107° |
| 2026-05-06 17:39 | 48.02817 | 6.86318 | 34836 ft | 453 kts | 107° |
| 2026-05-06 17:39 | 48.01314 | 6.95486 | 34835 ft | 453 kts | 108° |
| 2026-05-06 17:40 | 47.99816 | 7.04581 | 34844 ft | 453 kts | 108° |
| 2026-05-06 17:40 | 47.98306 | 7.13701 | 34834 ft | 452 kts | 108° |
| 2026-05-06 17:41 | 47.96795 | 7.22792 | 34848 ft | 453 kts | 108° |
| 2026-05-06 17:41 | 47.95273 | 7.31898 | 34853 ft | 453 kts | 108° |
| 2026-05-06 17:42 | 47.93742 | 7.41008 | 34860 ft | 454 kts | 108° |
| 2026-05-06 17:42 | 47.92200 | 7.50120 | 34863 ft | 454 kts | 108° |
| 2026-05-06 17:43 | 47.90537 | 7.59167 | 34869 ft | 452 kts | 112° |
| 2026-05-06 17:43 | 47.88380 | 7.67941 | 34880 ft | 451 kts | 116° |
| 2026-05-06 17:44 | 47.86160 | 7.76672 | 34873 ft | 451 kts | 116° |
| 2026-05-06 17:44 | 47.83937 | 7.85413 | 34880 ft | 452 kts | 116° |
| 2026-05-06 17:45 | 47.81704 | 7.94162 | 34877 ft | 452 kts | 116° |
| 2026-05-06 17:45 | 47.79478 | 8.02854 | 34870 ft | 453 kts | 116° |
| 2026-05-06 17:46 | 47.77239 | 8.11567 | 34878 ft | 453 kts | 116° |
| 2026-05-06 17:46 | 47.74994 | 8.20282 | 34875 ft | 452 kts | 116° |
| 2026-05-06 17:47 | 47.72741 | 8.28992 | 34879 ft | 452 kts | 116° |
| 2026-05-06 17:47 | 47.70490 | 8.37659 | 34891 ft | 452 kts | 116° |
| 2026-05-06 17:48 | 47.68301 | 8.46409 | 34891 ft | 455 kts | 114° |
| 2026-05-06 17:48 | 47.66283 | 8.55323 | 34897 ft | 455 kts | 114° |
| 2026-05-06 17:49 | 47.64287 | 8.64156 | 34894 ft | 455 kts | 114° |
| 2026-05-06 17:49 | 47.62258 | 8.73085 | 34899 ft | 454 kts | 115° |
| 2026-05-06 17:50 | 47.60240 | 8.81926 | 34895 ft | 454 kts | 115° |
| 2026-05-06 17:50 | 47.58221 | 8.90723 | 34895 ft | 455 kts | 115° |
| 2026-05-06 17:51 | 47.56183 | 8.99570 | 34899 ft | 455 kts | 115° |
| 2026-05-06 17:51 | 47.54137 | 9.08418 | 34890 ft | 455 kts | 115° |
| 2026-05-06 17:52 | 47.52045 | 9.17430 | 34887 ft | 456 kts | 115° |
| 2026-05-06 17:52 | 47.49986 | 9.26274 | 34875 ft | 455 kts | 115° |
| 2026-05-06 17:53 | 47.47903 | 9.35177 | 34880 ft | 457 kts | 115° |
| 2026-05-06 17:53 | 47.45834 | 9.43987 | 34797 ft | 456 kts | 115° |